»·PEaware :: N451JS KPSP-KPHX

N451JS :: KPSP-KPHX

FLIGHT INFORMATION

Flight Status: Arrived
Operator: Privately registered:
United States
More flights under this callsign
Pilot: Chase C. (10526)
Aircraft: MOONEY M-20 201 202 205 220 ATS MSE
(M20P)
More flights by this aircraft type
Origin: KPSP Palm Springs Intl
United States
Destination: KPHX Phoenix Sky Harbor Intl
United States
More flights between these airports :: More routes between these airports
Route: +CATH1 PSP BLH V16 BXK
File this flight plan on PilotEdge
Remarks:
Altitude:
(Current/Filed)
13,000ft
Speed:
(Current/Filed)
185kts
Departed: 14-May-18 10:48 AM
Arrived: 14-May-18 12:23 PM
Distance/Time
Traveled:
225nm/1:35
Distance/Time
To Go:
Arrived

Flight Plot

Page will automatically refresh every two minutes.

Flight plan parsing failed; only flown route is shown


Map Options




Map Legend


Flown Route
Filed Route
Departure Airport
Arrival Airport
Navaid (VOR, NDB)
Fix

Horizontal Profiles

Position Reports

Time Latitude Longitude Heading Altitude Ground
Speed
14-May-18 10:33 33.825673 -116.509813 1 419ft 0kts
14-May-18 10:34 33.825673 -116.509813 1 419ft 0kts
14-May-18 10:35 33.825673 -116.509813 1 419ft 0kts
14-May-18 10:36 33.825673 -116.509813 1 419ft 0kts
14-May-18 10:37 33.825673 -116.509813 1 419ft 0kts
14-May-18 10:38 33.825673 -116.509813 1 419ft 0kts
14-May-18 10:39 33.825673 -116.509813 1 419ft 0kts
14-May-18 10:40 33.825673 -116.509813 1 419ft 0kts
14-May-18 10:41 33.825673 -116.509813 1 419ft 0kts
14-May-18 10:42 33.825700 -116.508644 88 417ft 17kts
14-May-18 10:43 33.824331 -116.504949 141 411ft 9kts
14-May-18 10:44 33.820892 -116.501867 141 401ft 24kts
14-May-18 10:45 33.818537 -116.499035 87 394ft 0kts
14-May-18 10:46 33.818537 -116.499036 88 394ft 0kts
14-May-18 10:47 33.818572 -116.498668 77 393ft 10kts
14-May-18 10:48 33.826201 -116.504713 320 472ft 104kts
14-May-18 10:49 33.845634 -116.523539 321 1313ft 123kts
14-May-18 10:50 33.867270 -116.544347 321 2298ft 124kts
14-May-18 10:51 33.890483 -116.565730 340 3329ft 123kts
14-May-18 10:52 33.901090 -116.538729 105 4445ft 126kts
14-May-18 10:53 33.891116 -116.501933 108 5499ft 127kts
14-May-18 10:54 33.880482 -116.465416 109 6515ft 128kts
14-May-18 10:55 33.868982 -116.426565 112 7029ft 159kts
14-May-18 10:56 33.847974 -116.380425 119 7018ft 177kts
14-May-18 10:57 33.825696 -116.332558 119 7009ft 180kts
14-May-18 10:58 33.803230 -116.285899 121 7001ft 180kts
14-May-18 10:59 33.780680 -116.239364 120 6994ft 181kts
14-May-18 11:00 33.756919 -116.190220 120 6987ft 181kts
14-May-18 11:01 33.732328 -116.139338 120 7165ft 170kts
14-May-18 11:02 33.712042 -116.096261 120 8292ft 137kts
14-May-18 11:03 33.699370 -116.059199 97 9394ft 124kts
14-May-18 11:04 33.696467 -116.022390 98 10505ft 110kts
14-May-18 11:05 33.693816 -115.987009 99 11480ft 109kts
14-May-18 11:06 33.691245 -115.952551 100 12436ft 104kts
14-May-18 11:07 33.688440 -115.916597 100 12990ft 132kts
14-May-18 11:08 33.684671 -115.868873 98 12986ft 167kts
14-May-18 11:09 33.680571 -115.815186 98 12983ft 175kts
14-May-18 11:10 33.676246 -115.758564 98 12982ft 177kts
14-May-18 11:11 33.670637 -115.700362 97 12983ft 178kts
14-May-18 11:12 33.666468 -115.642348 98 12982ft 178kts
14-May-18 11:13 33.662001 -115.583253 98 12982ft 178kts
14-May-18 11:14 33.657456 -115.524015 98 12982ft 178kts
14-May-18 11:15 33.652869 -115.464812 98 12982ft 178kts
14-May-18 11:16 33.648257 -115.405699 98 12985ft 178kts
14-May-18 11:17 33.643595 -115.346727 99 12992ft 178kts
14-May-18 11:18 33.638982 -115.288351 99 12998ft 178kts
14-May-18 11:19 33.634304 -115.229480 99 13005ft 177kts
14-May-18 11:20 33.629637 -115.170939 99 13009ft 178kts
14-May-18 11:21 33.624877 -115.111718 99 13009ft 178kts
14-May-18 11:22 33.620049 -115.052209 99 13009ft 179kts
14-May-18 11:23 33.615235 -114.992708 99 13009ft 180kts
14-May-18 11:24 33.610351 -114.932808 100 13009ft 181kts
14-May-18 11:25 33.605391 -114.872567 100 13009ft 181kts
14-May-18 11:26 33.600503 -114.813582 100 13009ft 181kts
14-May-18 11:27 33.595580 -114.753291 98 13009ft 182kts
14-May-18 11:28 33.591581 -114.692910 98 13009ft 182kts
14-May-18 11:29 33.587544 -114.632266 98 13010ft 182kts
14-May-18 11:30 33.583496 -114.571859 98 13010ft 182kts
14-May-18 11:31 33.579471 -114.511510 98 13010ft 182kts
14-May-18 11:32 33.575356 -114.450880 98 13010ft 182kts
14-May-18 11:33 33.571394 -114.393000 98 13010ft 182kts
14-May-18 11:34 33.567240 -114.332737 99 13008ft 182kts
14-May-18 11:35 33.563065 -114.272615 99 13008ft 182kts
14-May-18 11:36 33.558808 -114.212396 99 13009ft 182kts
14-May-18 11:37 33.555260 -114.162088 99 13009ft 182kts
14-May-18 11:38 33.550299 -114.092092 99 13010ft 182kts
14-May-18 11:39 33.546016 -114.032160 99 13011ft 182kts
14-May-18 11:40 33.541742 -113.972439 99 13012ft 182kts
14-May-18 11:41 33.537414 -113.912221 99 13012ft 182kts
14-May-18 11:42 33.533021 -113.851940 99 13013ft 182kts
14-May-18 11:43 33.528589 -113.791561 99 13013ft 182kts
14-May-18 11:44 33.524870 -113.741221 99 13014ft 182kts
14-May-18 11:45 33.520383 -113.680854 99 13018ft 182kts
14-May-18 11:46 33.515842 -113.620791 99 13021ft 182kts
14-May-18 11:47 33.511282 -113.560301 99 13025ft 182kts
14-May-18 11:48 33.506723 -113.499868 99 13028ft 182kts
14-May-18 11:49 33.502154 -113.439642 99 13028ft 182kts
14-May-18 11:50 33.497510 -113.379119 99 13028ft 182kts
14-May-18 11:51 33.492841 -113.318924 100 13026ft 182kts
14-May-18 11:52 33.488134 -113.258833 100 13026ft 182kts
14-May-18 11:53 33.483428 -113.198764 100 13027ft 182kts
14-May-18 11:54 33.478732 -113.139138 100 13027ft 182kts
14-May-18 11:55 33.474046 -113.080007 100 13027ft 182kts
14-May-18 11:56 33.469343 -113.020991 100 13045ft 181kts
14-May-18 11:57 33.464570 -112.960787 100 13045ft 182kts
14-May-18 11:58 33.459690 -112.900157 100 13045ft 183kts
14-May-18 11:59 33.454746 -112.839265 100 13045ft 184kts
14-May-18 12:00 33.450840 -112.778807 99 13046ft 186kts
14-May-18 12:01 33.446811 -112.720797 99 13031ft 187kts
14-May-18 12:02 33.442679 -112.664871 99 12666ft 200kts
14-May-18 12:03 33.433316 -112.607264 121 12114ft 199kts
14-May-18 12:04 33.428799 -112.545775 94 11499ft 207kts
14-May-18 12:05 33.428407 -112.487038 94 10688ft 185kts
14-May-18 12:06 33.428394 -112.442750 83 9006ft 153kts
14-May-18 12:07 33.428468 -112.399132 92 7589ft 135kts
14-May-18 12:08 33.428631 -112.364720 87 6929ft 142kts
14-May-18 12:09 33.428668 -112.325505 88 6271ft 161kts
14-May-18 12:10 33.428651 -112.282012 88 5506ft 167kts
14-May-18 12:11 33.428697 -112.239968 88 4751ft 157kts
14-May-18 12:12 33.428770 -112.200982 88 4055ft 140kts
14-May-18 12:13 33.428833 -112.163545 88 3411ft 131kts
14-May-18 12:14 33.428840 -112.133865 89 2901ft 97kts
14-May-18 12:15 33.428884 -112.115012 89 2586ft 91kts
14-May-18 12:16 33.428896 -112.097321 89 2298ft 89kts
14-May-18 12:17 33.428900 -112.080705 89 2034ft 93kts
14-May-18 12:18 33.428880 -112.066559 89 1801ft 92kts
14-May-18 12:19 33.428879 -112.052864 88 1577ft 90kts
14-May-18 12:20 33.428875 -112.041973 88 1402ft 90kts
14-May-18 12:21 33.428836 -112.032687 88 1215ft 89kts
14-May-18 12:22 33.428887 -112.019200 91 1111ft 42kts
14-May-18 12:23 33.427749 -112.017870 270 1111ft 11kts
14-May-18 12:24 33.427153 -112.021128 178 1111ft 12kts
14-May-18 12:25 33.425492 -112.021688 124 1111ft 2kts
14-May-18 12:26 33.425488 -112.021526 90 1111ft 0kts
14-May-18 12:27 33.425488 -112.021526 90 1111ft 0kts
14-May-18 12:28 33.425488 -112.021526 90 1111ft 0kts
14-May-18 12:29 33.425488 -112.021526 90 1111ft 0kts

Navigation Log

Ident Type
Flight plan parsing failed, navigation log unavailable